Terminal Aerodrome Forecast
Issued by NWS Bismarck, ND

Home | Current Version | Previous Version | Text Only | Print | Product List | Glossary On
Versions: 1 2 3 4 5 6 7 8 9 10 11 12 13 14 15 16 17 18 19 20 21 22 23 24 25
000
FTUS43 KBIS 290000 AAA
TAFBIS
TAF AMD
KBIS 290046Z 2901/2924 28035G50KT 4SM -TSRA BLDU BKN060CB
     FM290200 30020G30KT 5SM -SHRA BKN035
     FM290600 31028G41KT 5SM -SHRA BKN022
     FM291000 31029G43KT P6SM BKN030
     FM291600 31023G35KT P6SM SCT230
     FM292200 31018G26KT P6SM SCT180=

USA.gov is the U.S. government's official web portal to all federal, state and local government web resources and services.